Time;durP1;ratioP1;P1;durP2;ratioP2;P2;SDS_P1;SDS_P2;PMS_P1;PMS_P2;Temp;Humidity;BMP_temperature;BMP_pressure;BME280_temperature;BME280_humidity;BME280_pressure;Samples;Min_cycle;Max_cycle;Signal;HPM_P1;HPM_P2
2022/07/26 00:01:32;;;;;;;31.38;10.38;;;;;;;18.66;66.66;93342.97;5092314;28;20027;-45
2022/07/26 00:03:57;;;;;;;19.20;13.63;;;;;;;18.49;66.71;93349.63;5091779;28;20020;-48
2022/07/26 00:06:24;;;;;;;17.90;10.10;;;;;;;18.62;66.60;93332.28;5091453;28;20390;-47
2022/07/26 00:08:50;;;;;;;12.20;9.35;;;;;;;18.54;66.51;93342.94;5091994;28;20032;-47
2022/07/26 00:11:16;;;;;;;12.93;9.98;;;;;;;18.44;67.04;93338.75;5091595;28;20111;-46
2022/07/26 00:13:41;;;;;;;10.85;9.10;;;;;;;18.42;66.68;93341.41;5091836;28;20032;-50
2022/07/26 00:16:06;;;;;;;10.35;9.25;;;;;;;18.56;66.01;93342.34;5090463;28;20130;-46
2022/07/26 00:18:32;;;;;;;12.27;9.02;;;;;;;18.57;65.64;93338.22;5091637;28;20023;-47
2022/07/26 00:20:58;;;;;;;11.95;9.15;;;;;;;18.49;66.09;93334.91;5083557;28;20025;-45
2022/07/26 00:23:23;;;;;;;10.38;9.27;;;;;;;18.59;65.80;93330.69;5091282;28;20069;-49
2022/07/26 00:25:49;;;;;;;20.48;12.20;;;;;;;18.61;65.37;93338.47;5090795;28;20025;-47
2022/07/26 00:28:14;;;;;;;10.30;9.00;;;;;;;18.39;65.60;93332.16;5071572;28;20106;-47
2022/07/26 00:30:40;;;;;;;18.70;8.32;;;;;;;18.44;65.26;93338.75;5071508;28;20024;-46
2022/07/26 00:33:06;;;;;;;10.30;8.77;;;;;;;18.24;65.65;93335.41;5071489;28;20021;-46
2022/07/26 00:35:32;;;;;;;11.70;9.02;;;;;;;18.26;65.83;93327.16;5077957;28;20508;-46
2022/07/26 00:37:58;;;;;;;10.80;8.80;;;;;;;18.00;66.80;93314.28;5090147;28;20679;-45
2022/07/26 00:40:23;;;;;;;11.68;9.23;;;;;;;17.92;66.63;93327.72;5084588;28;20020;-48
2022/07/26 00:42:49;;;;;;;15.00;9.35;;;;;;;17.95;66.90;93332.84;5073024;28;20387;-46
2022/07/26 00:45:16;;;;;;;12.15;8.73;;;;;;;17.76;67.06;93321.81;5071510;28;20463;-47
2022/07/26 00:47:41;;;;;;;15.18;9.90;;;;;;;17.64;68.26;93320.31;5071232;28;20108;-43
2022/07/26 00:50:10;;;;;;;12.23;9.63;;;;;;;17.64;68.17;93328.69;5071159;28;20109;-45
2022/07/26 00:52:36;;;;;;;11.02;9.25;;;;;;;17.61;68.76;93315.91;5071471;28;20401;-47
2022/07/26 00:55:03;;;;;;;10.88;8.63;;;;;;;17.61;68.77;93321.50;5071020;28;20031;-46
2022/07/26 00:57:29;;;;;;;11.65;9.43;;;;;;;17.63;68.78;93313.28;5070984;28;20501;-51
2022/07/26 00:59:54;;;;;;;10.63;8.60;;;;;;;17.68;68.50;93312.94;5071039;28;20081;-48
2022/07/26 01:02:21;;;;;;;11.65;9.63;;;;;;;17.91;68.02;93315.81;5071055;28;20052;-47
2022/07/26 01:04:46;;;;;;;10.95;9.18;;;;;;;17.91;67.89;93310.25;5071161;28;20436;-46
2022/07/26 01:07:12;;;;;;;11.75;9.60;;;;;;;17.70;68.61;93301.16;5093380;28;20034;-44
2022/07/26 01:09:38;;;;;;;13.82;8.98;;;;;;;17.75;68.18;93305.69;5091053;28;20105;-51
2022/07/26 01:12:04;;;;;;;11.70;9.35;;;;;;;17.73;68.26;93303.50;5090405;28;20074;-47
2022/07/26 01:14:30;;;;;;;11.82;9.32;;;;;;;17.75;68.07;93308.47;5090914;28;20024;-46
2022/07/26 01:16:55;;;;;;;11.00;9.05;;;;;;;17.58;67.77;93292.72;5090043;28;20023;-48
2022/07/26 01:19:21;;;;;;;10.38;8.95;;;;;;;17.55;67.70;93305.09;5089278;28;20116;-46
2022/07/26 01:21:48;;;;;;;10.32;8.70;;;;;;;17.47;67.96;93304.53;5089307;28;20028;-46
2022/07/26 01:24:13;;;;;;;13.73;9.48;;;;;;;17.59;67.26;93305.34;5089528;28;20032;-47
2022/07/26 01:26:39;;;;;;;10.60;9.40;;;;;;;17.46;67.84;93300.25;5089474;28;20035;-47
2022/07/26 01:29:04;;;;;;;12.38;9.40;;;;;;;17.43;68.23;93307.06;5089173;28;20024;-45
2022/07/26 01:31:30;;;;;;;16.95;12.07;;;;;;;17.46;68.14;93300.25;5089188;28;20481;-45
2022/07/26 01:33:56;;;;;;;15.68;10.57;;;;;;;17.47;68.11;93289.84;5089035;28;20094;-41
2022/07/26 01:36:21;;;;;;;30.58;9.25;;;;;;;17.56;67.73;93300.22;5089497;28;20027;-44
2022/07/26 01:38:47;;;;;;;19.55;10.05;;;;;;;17.54;68.16;93300.09;5088022;28;20020;-46
2022/07/26 01:41:13;;;;;;;20.98;9.35;;;;;;;17.27;68.70;93298.34;5087751;28;20036;-46
2022/07/26 01:43:38;;;;;;;17.45;9.82;;;;;;;17.44;68.48;93298.06;5089316;28;20504;-48
2022/07/26 01:46:06;;;;;;;12.23;11.13;;;;;;;17.44;68.40;93300.88;5090377;28;20039;-45
2022/07/26 01:48:31;;;;;;;11.38;9.82;;;;;;;17.32;68.59;93299.34;5090220;28;20114;-43
2022/07/26 01:50:57;;;;;;;13.50;9.05;;;;;;;17.12;68.70;93286.81;5090340;28;20111;-44
2022/07/26 01:53:22;;;;;;;13.88;9.93;;;;;;;17.24;68.41;93284.81;5090232;28;20024;-42
2022/07/26 01:55:48;;;;;;;12.60;8.90;;;;;;;17.08;68.21;93280.97;5090323;28;20030;-43
2022/07/26 01:58:13;;;;;;;16.80;10.45;;;;;;;17.01;69.29;93298.63;5090527;28;20026;-43
2022/07/26 02:00:39;;;;;;;10.43;9.07;;;;;;;17.11;68.85;93300.03;5090111;28;20032;-44
2022/07/26 02:03:04;;;;;;;10.18;8.48;;;;;;;17.15;67.55;93277.25;5089618;28;20016;-42
2022/07/26 02:05:30;;;;;;;9.93;8.30;;;;;;;17.10;67.91;93297.84;5090022;28;20026;-42
2022/07/26 02:07:55;;;;;;;11.07;9.35;;;;;;;16.94;68.46;93291.16;5088909;28;20103;-44
2022/07/26 02:10:22;;;;;;;11.32;8.85;;;;;;;17.03;68.35;93298.75;5088412;28;20020;-43
2022/07/26 02:12:47;;;;;;;16.13;9.63;;;;;;;17.04;68.38;93291.84;5089316;28;20035;-44
2022/07/26 02:15:13;;;;;;;13.00;9.02;;;;;;;17.10;68.00;93293.00;5089302;28;20032;-43
2022/07/26 02:17:39;;;;;;;11.30;8.70;;;;;;;17.05;67.59;93305.19;5089005;28;20028;-46
2022/07/26 02:20:06;;;;;;;10.15;9.00;;;;;;;17.16;67.29;93307.34;5092578;28;20028;-44
2022/07/26 02:22:32;;;;;;;12.48;9.43;;;;;;;16.96;68.39;93308.03;5092736;28;20103;-45
2022/07/26 02:24:57;;;;;;;13.95;9.45;;;;;;;16.74;68.71;93312.09;5092782;28;20032;-41
2022/07/26 02:27:23;;;;;;;11.38;8.80;;;;;;;16.74;69.28;93306.53;5092806;28;20026;-46
2022/07/26 02:29:49;;;;;;;11.13;8.80;;;;;;;16.82;68.61;93305.03;5093040;28;20107;-43
2022/07/26 02:32:14;;;;;;;16.20;9.52;;;;;;;16.64;68.96;93303.75;5088687;28;20028;-45
2022/07/26 02:34:40;;;;;;;13.52;9.00;;;;;;;16.80;68.37;93301.34;5073806;28;20024;-44
2022/07/26 02:37:05;;;;;;;10.82;9.52;;;;;;;16.75;69.26;93299.59;5087596;28;20105;-43
2022/07/26 02:39:31;;;;;;;11.43;9.35;;;;;;;16.66;70.04;93307.41;5094158;28;20031;-44
2022/07/26 02:41:57;;;;;;;14.38;9.65;;;;;;;16.65;70.68;93300.38;5094026;28;20561;-44
2022/07/26 02:44:24;;;;;;;14.40;9.15;;;;;;;16.69;70.49;93302.72;5094159;28;20031;-44
2022/07/26 02:46:50;;;;;;;12.02;10.15;;;;;;;16.84;70.01;93298.84;5093849;28;20058;-45
2022/07/26 02:49:15;;;;;;;12.35;10.52;;;;;;;16.85;69.86;93297.53;5093787;28;20065;-46
2022/07/26 02:51:41;;;;;;;14.13;10.07;;;;;;;16.73;70.29;93297.41;5093683;28;20020;-45
2022/07/26 02:54:06;;;;;;;15.73;10.85;;;;;;;16.64;70.79;93301.72;5093753;28;20020;-45
2022/07/26 02:56:32;;;;;;;34.17;10.60;;;;;;;16.61;70.34;93308.47;5093826;28;20031;-43
2022/07/26 02:58:57;;;;;;;19.17;10.77;;;;;;;16.70;69.36;93306.97;5093785;28;20558;-46
2022/07/26 03:01:23;;;;;;;28.08;10.55;;;;;;;16.54;69.49;93319.78;5093843;28;20523;-43
2022/07/26 03:03:48;;;;;;;15.98;9.18;;;;;;;16.60;69.32;93314.63;5093483;28;20026;-46
2022/07/26 03:06:14;;;;;;;28.17;10.48;;;;;;;16.42;70.25;93319.63;5093499;28;20032;-44
2022/07/26 03:08:39;;;;;;;14.70;10.05;;;;;;;16.24;71.20;93321.13;5104229;28;20038;-46
2022/07/26 03:11:05;;;;;;;23.65;9.30;;;;;;;16.31;71.24;93316.72;5104677;28;20027;-46
2022/07/26 03:13:31;;;;;;;17.77;10.77;;;;;;;16.24;71.42;93323.19;5093119;28;20036;-46
2022/07/26 03:15:57;;;;;;;15.50;10.48;;;;;;;16.33;71.08;93319.69;5093249;28;20467;-47
2022/07/26 03:18:22;;;;;;;13.90;11.07;;;;;;;16.24;71.31;93326.69;5093508;28;20036;-42
2022/07/26 03:20:48;;;;;;;11.85;9.20;;;;;;;16.22;71.57;93329.34;5092343;28;20020;-42
2022/07/26 03:23:14;;;;;;;16.08;10.60;;;;;;;16.17;72.14;93326.88;5084058;28;20027;-41
2022/07/26 03:25:39;;;;;;;14.85;9.68;;;;;;;16.41;71.27;93340.47;5073177;28;20024;-42
2022/07/26 03:28:05;;;;;;;12.15;9.38;;;;;;;16.35;70.36;93340.03;5072999;28;20020;-42
2022/07/26 03:30:30;;;;;;;12.48;9.38;;;;;;;16.48;70.55;93334.00;5071999;28;20031;-43
2022/07/26 03:32:56;;;;;;;9.05;8.00;;;;;;;16.64;69.16;93342.78;5072781;28;20107;-43
2022/07/26 03:35:21;;;;;;;11.60;8.45;;;;;;;16.32;70.26;93338.44;5072521;28;20020;-42
2022/07/26 03:37:47;;;;;;;11.10;7.85;;;;;;;16.44;69.55;93335.75;5072985;28;20024;-43
2022/07/26 03:40:16;;;;;;;15.70;9.35;;;;;;;16.32;70.37;93335.66;5072790;28;20032;-44
2022/07/26 03:42:41;;;;;;;14.32;10.13;;;;;;;16.46;70.27;93338.69;5072457;28;20070;-43
2022/07/26 03:45:07;;;;;;;19.15;9.77;;;;;;;16.60;70.13;93336.94;5072315;28;20132;-46
2022/07/26 03:47:33;;;;;;;17.67;12.95;;;;;;;16.67;68.73;93339.53;5072707;28;20024;-44
2022/07/26 03:49:58;;;;;;;11.60;9.38;;;;;;;16.72;69.47;93337.06;5072339;28;20029;-45
2022/07/26 03:52:23;;;;;;;13.68;9.95;;;;;;;16.85;68.43;93334.50;5072312;28;20024;-46
2022/07/26 03:54:49;;;;;;;16.35;9.98;;;;;;;16.83;68.41;93334.34;5072293;28;20082;-45
2022/07/26 03:57:14;;;;;;;12.25;9.45;;;;;;;16.71;68.80;93330.00;5089272;28;20028;-43
2022/07/26 03:59:40;;;;;;;13.18;10.07;;;;;;;16.86;68.94;93335.22;5092708;28;20020;-43
2022/07/26 04:02:05;;;;;;;11.00;9.18;;;;;;;16.83;69.00;93330.84;5094908;28;20024;-44
2022/07/26 04:04:31;;;;;;;13.35;9.48;;;;;;;16.76;68.56;93334.53;5108969;28;20031;-43
2022/07/26 04:06:56;;;;;;;13.95;9.07;;;;;;;16.80;68.29;93329.25;5113052;28;20023;-45
2022/07/26 04:09:22;;;;;;;12.65;9.05;;;;;;;16.71;69.19;93327.22;5112452;28;20536;-44
2022/07/26 04:11:48;;;;;;;13.82;10.32;;;;;;;16.74;69.47;93328.81;5097207;28;20040;-43
2022/07/26 04:14:14;;;;;;;12.95;10.30;;;;;;;16.63;69.89;93319.03;5092146;28;20054;-41
2022/07/26 04:16:39;;;;;;;13.00;9.75;;;;;;;16.84;69.92;93326.72;5092341;28;20020;-42
2022/07/26 04:19:05;;;;;;;12.82;10.70;;;;;;;16.85;69.22;93317.06;5092363;28;20412;-43
2022/07/26 04:21:30;;;;;;;17.13;10.00;;;;;;;16.92;69.84;93327.28;5081216;28;20428;-45
2022/07/26 04:23:56;;;;;;;11.45;9.25;;;;;;;16.93;69.73;93323.16;5092238;28;20016;-43
2022/07/26 04:26:21;;;;;;;10.98;9.70;;;;;;;16.97;69.97;93323.44;5091927;28;20028;-45
2022/07/26 04:28:47;;;;;;;12.50;9.85;;;;;;;17.13;69.49;93324.56;5092239;28;20032;-47
2022/07/26 04:31:13;;;;;;;12.07;9.50;;;;;;;17.23;69.03;93322.44;5091700;28;20592;-47
2022/07/26 04:33:38;;;;;;;11.07;9.65;;;;;;;17.06;69.98;93328.25;5091701;28;20081;-44
2022/07/26 04:36:04;;;;;;;13.25;9.48;;;;;;;17.25;69.31;93326.09;5091500;28;20027;-45
2022/07/26 04:38:30;;;;;;;11.88;9.70;;;;;;;17.40;69.15;93327.78;5091394;28;20095;-48
2022/07/26 04:40:56;;;;;;;14.38;10.27;;;;;;;17.19;70.64;93319.38;5091923;28;20105;-48
2022/07/26 04:43:22;;;;;;;12.93;9.57;;;;;;;17.48;69.84;93319.22;5096993;28;20428;-47
2022/07/26 04:45:47;;;;;;;16.70;9.68;;;;;;;17.67;69.81;93325.41;5091914;28;20028;-46
2022/07/26 04:48:14;;;;;;;18.27;10.98;;;;;;;17.80;70.06;93318.56;5099640;28;20422;-45
2022/07/26 04:50:40;;;;;;;11.80;9.38;;;;;;;17.79;70.52;93319.91;5109044;28;20019;-44
2022/07/26 04:53:05;;;;;;;13.05;10.68;;;;;;;17.81;71.06;93306.81;5096476;28;20470;-44
2022/07/26 04:55:31;;;;;;;19.42;11.45;;;;;;;17.94;70.58;93316.69;5091328;28;20020;-44
2022/07/26 04:57:57;;;;;;;14.07;10.90;;;;;;;18.10;70.74;93312.88;5091371;28;20019;-43
2022/07/26 05:00:23;;;;;;;19.42;11.70;;;;;;;18.11;70.91;93319.94;5091241;28;20111;-47
2022/07/26 05:02:54;;;;;;;16.17;12.38;;;;;;;18.25;70.95;93313.78;5091144;28;20027;-45
2022/07/26 05:05:21;;;;;;;16.95;12.30;;;;;;;18.14;72.10;93310.34;5091154;28;20088;-43
2022/07/26 05:07:51;;;;;;;18.80;12.50;;;;;;;18.37;71.83;93306.16;5091443;28;20047;-43
2022/07/26 05:10:18;;;;;;;28.35;13.05;;;;;;;18.47;71.75;93304.78;5090689;28;20058;-45
2022/07/26 05:12:45;;;;;;;15.38;11.85;;;;;;;18.69;71.15;93313.81;5089624;28;20093;-43
2022/07/26 05:15:11;;;;;;;16.70;11.75;;;;;;;18.79;70.74;93311.63;5090855;28;20028;-41
2022/07/26 05:17:38;;;;;;;23.13;12.40;;;;;;;18.84;71.58;93304.94;5090785;28;20024;-46
2022/07/26 05:20:08;;;;;;;23.30;13.05;;;;;;;18.90;72.25;93296.91;5090754;28;20020;-45
2022/07/26 05:22:34;;;;;;;41.97;14.05;;;;;;;18.97;72.09;93298.03;5090900;28;20020;-43
2022/07/26 05:25:00;;;;;;;22.30;13.18;;;;;;;19.05;72.42;93302.03;5091066;28;20029;-43
2022/07/26 05:27:25;;;;;;;17.05;12.55;;;;;;;19.22;72.29;93301.66;5091066;28;20413;-43
2022/07/26 05:29:51;;;;;;;15.02;13.15;;;;;;;19.28;72.37;93296.41;5090715;28;20485;-45
2022/07/26 05:32:17;;;;;;;18.50;14.82;;;;;;;19.30;72.32;93288.13;5090432;28;20101;-46
2022/07/26 05:34:42;;;;;;;16.48;13.50;;;;;;;19.31;72.52;93289.63;5090946;28;20394;-43
2022/07/26 05:37:08;;;;;;;21.33;13.77;;;;;;;19.33;72.17;93272.94;5083851;28;20030;-44
2022/07/26 05:39:33;;;;;;;19.55;13.45;;;;;;;19.65;71.71;93288.84;5090368;28;20016;-49
2022/07/26 05:41:59;;;;;;;21.25;12.77;;;;;;;19.76;71.85;93290.16;5089532;28;20020;-46
2022/07/26 05:44:24;;;;;;;39.38;18.27;;;;;;;19.82;72.16;93289.75;5090621;28;20512;-45
2022/07/26 05:46:50;;;;;;;26.80;18.90;;;;;;;19.97;71.91;93281.56;5090796;28;20024;-45
2022/07/26 05:49:15;;;;;;;27.00;17.70;;;;;;;20.08;71.42;93277.97;5090253;28;20039;-46
2022/07/26 05:51:41;;;;;;;18.58;15.32;;;;;;;20.27;70.61;93288.19;5090416;28;20032;-46
2022/07/26 05:54:07;;;;;;;18.45;14.30;;;;;;;20.28;70.87;93287.56;5086404;28;20059;-46
2022/07/26 05:56:32;;;;;;;19.88;15.15;;;;;;;20.31;70.69;93282.78;5082733;28;20041;-49
2022/07/26 05:58:58;;;;;;;18.05;13.77;;;;;;;20.56;70.43;93276.41;5090703;28;20047;-45
2022/07/26 06:01:23;;;;;;;17.08;13.15;;;;;;;20.52;70.39;93271.31;5090219;28;20078;-46
2022/07/26 06:03:48;;;;;;;16.30;13.40;;;;;;;20.67;69.16;93279.16;5090245;28;20024;-47
2022/07/26 06:06:14;;;;;;;17.75;13.27;;;;;;;20.81;69.76;93279.19;5081575;28;20067;-46
2022/07/26 06:08:39;;;;;;;19.15;13.63;;;;;;;20.88;68.78;93276.09;5090121;28;20031;-46
2022/07/26 06:11:05;;;;;;;16.90;12.48;;;;;;;20.93;68.73;93277.03;5086050;28;20031;-48
2022/07/26 06:13:30;;;;;;;16.85;11.93;;;;;;;21.03;69.11;93275.50;5101503;28;20127;-49
2022/07/26 06:16:11;;;;;;;15.15;12.55;;;;;;;21.19;68.36;93269.28;5063594;28;20068;-46
2022/07/26 06:18:36;;;;;;;15.27;12.57;;;;;;;21.37;67.73;93273.03;5086737;28;20073;-47
2022/07/26 06:21:02;;;;;;;14.15;12.13;;;;;;;21.35;67.59;93273.66;5086658;28;20034;-47
2022/07/26 06:23:27;;;;;;;17.40;12.27;;;;;;;21.44;67.56;93267.09;5086658;28;20485;-48
2022/07/26 06:39:02;;;;;;;13.13;9.43;;;;;;;23.08;62.77;93253.94;5051619;28;24411;-39
2022/07/26 06:41:28;;;;;;;11.93;9.68;;;;;;;23.11;60.66;93258.28;5016927;28;20033;-39
2022/07/26 06:43:53;;;;;;;11.85;9.55;;;;;;;23.09;60.26;93252.56;5007370;28;20037;-37
2022/07/26 06:46:19;;;;;;;11.82;9.50;;;;;;;23.11;60.43;93254.72;4998170;28;20035;-37
2022/07/26 06:48:45;;;;;;;11.55;8.98;;;;;;;23.26;58.90;93251.19;4992304;28;20042;-38
2022/07/26 06:51:11;;;;;;;10.35;8.90;;;;;;;23.41;59.71;93256.13;4984966;28;20526;-38
2022/07/26 06:53:36;;;;;;;13.90;8.30;;;;;;;23.51;57.81;93256.56;4992275;28;20177;-38
2022/07/26 06:56:02;;;;;;;10.93;9.23;;;;;;;23.47;59.60;93250.75;5004093;28;20144;-38
2022/07/26 06:58:28;;;;;;;11.90;10.15;;;;;;;23.50;58.63;93243.81;5004172;28;20070;-37
2022/07/26 07:00:53;;;;;;;12.32;9.07;;;;;;;23.63;59.15;93245.06;5003429;28;20030;-38
2022/07/26 07:03:19;;;;;;;9.88;8.82;;;;;;;23.57;59.85;93241.97;4998482;28;20038;-38
2022/07/26 07:05:45;;;;;;;10.30;9.00;;;;;;;23.73;57.96;93249.03;5004425;28;20022;-38
2022/07/26 07:08:11;;;;;;;14.02;10.25;;;;;;;23.83;57.14;93246.63;4997126;28;20439;-38
2022/07/26 07:10:36;;;;;;;18.45;13.45;;;;;;;23.84;57.38;93242.47;4993630;28;20034;-37
2022/07/26 07:13:02;;;;;;;13.45;10.70;;;;;;;24.02;56.94;93248.84;4990366;28;20069;-37
2022/07/26 07:15:27;;;;;;;12.65;8.45;;;;;;;24.03;57.97;93244.66;4997300;28;20038;-38
2022/07/26 07:17:53;;;;;;;13.07;11.23;;;;;;;24.07;57.50;93247.66;4997457;28;20096;-39
2022/07/26 07:20:18;;;;;;;10.88;8.85;;;;;;;24.33;56.61;93247.28;4994860;28;20045;-38
2022/07/26 07:22:44;;;;;;;12.43;9.27;;;;;;;24.34;56.41;93245.91;4984267;28;20045;-38
2022/07/26 07:25:09;;;;;;;11.73;10.15;;;;;;;24.53;57.12;93242.44;4995860;28;20033;-38
2022/07/26 07:27:35;;;;;;;13.07;10.45;;;;;;;24.51;55.23;93253.66;5003864;28;20037;-37
2022/07/26 07:30:01;;;;;;;10.60;9.50;;;;;;;24.63;54.92;93254.84;5001701;28;20140;-37
2022/07/26 07:32:26;;;;;;;13.10;11.50;;;;;;;24.96;55.17;93251.19;4989689;28;20117;-38
2022/07/26 07:34:51;;;;;;;10.30;9.30;;;;;;;25.33;52.98;93256.81;4998592;28;20030;-38
2022/07/26 07:37:18;;;;;;;14.13;9.13;;;;;;;25.86;51.81;93253.03;4983906;28;20051;-38
2022/07/26 07:39:43;;;;;;;11.63;10.43;;;;;;;26.54;49.47;93246.81;4982444;28;20510;-38
2022/07/26 07:42:09;;;;;;;13.68;8.98;;;;;;;26.96;47.94;93250.97;4988874;28;20038;-37
2022/07/26 07:44:34;;;;;;;11.18;9.95;;;;;;;27.57;45.40;93252.78;4988610;28;20034;-38
2022/07/26 07:46:59;;;;;;;9.88;8.82;;;;;;;28.06;43.67;93252.72;4989688;28;20085;-39
2022/07/26 07:49:25;;;;;;;9.73;8.73;;;;;;;28.66;43.11;93241.41;4990150;28;20571;-38
2022/07/26 07:51:50;;;;;;;9.02;8.20;;;;;;;29.36;41.46;93254.41;4989481;28;20030;-38
2022/07/26 07:54:17;;;;;;;9.82;7.55;;;;;;;30.04;42.20;93257.19;4988794;28;20496;-39
2022/07/26 07:56:42;;;;;;;9.43;8.45;;;;;;;30.53;38.78;93250.97;4987071;28;20034;-39
2022/07/26 07:59:08;;;;;;;10.15;9.15;;;;;;;30.96;38.34;93255.94;4988674;28;20030;-39
2022/07/26 08:01:33;;;;;;;10.68;9.60;;;;;;;31.20;38.48;93247.00;4987601;28;20072;-39
2022/07/26 08:03:59;;;;;;;10.80;8.38;;;;;;;31.65;37.45;93251.19;4987430;28;20033;-40
2022/07/26 08:06:24;;;;;;;12.43;8.10;;;;;;;31.69;36.85;93242.66;4987503;28;20065;-40
2022/07/26 08:08:50;;;;;;;14.38;8.55;;;;;;;32.34;36.29;93241.97;4988450;28;20034;-40
2022/07/26 08:11:15;;;;;;;11.35;8.88;;;;;;;32.66;33.54;93250.16;4989044;28;20035;-37
2022/07/26 08:13:41;;;;;;;7.78;7.07;;;;;;;32.75;33.48;93232.34;4988069;28;20030;-38
2022/07/26 08:16:08;;;;;;;8.55;7.75;;;;;;;33.48;33.71;93239.28;4988767;28;20018;-39
2022/07/26 08:18:33;;;;;;;9.23;7.95;;;;;;;33.66;32.39;93230.09;4988474;28;20510;-38
2022/07/26 08:20:59;;;;;;;8.57;7.68;;;;;;;34.31;31.64;93220.28;4987846;28;20089;-41
2022/07/26 08:23:24;;;;;;;9.63;8.48;;;;;;;34.45;31.49;93233.19;4987620;28;20026;-40
2022/07/26 08:25:50;;;;;;;8.32;7.45;;;;;;;34.59;32.39;93230.38;4987894;28;20030;-39
2022/07/26 08:28:16;;;;;;;9.13;7.38;;;;;;;34.66;31.35;93226.06;4988092;28;20034;-39
2022/07/26 08:30:41;;;;;;;9.88;8.43;;;;;;;34.30;31.50;93218.13;4988046;28;20105;-38
2022/07/26 08:33:07;;;;;;;12.30;9.82;;;;;;;34.48;31.05;93215.28;4987420;28;20575;-37
2022/07/26 08:35:32;;;;;;;11.30;9.02;;;;;;;35.16;29.48;93214.59;4987360;28;20018;-44
2022/07/26 08:37:58;;;;;;;9.40;7.85;;;;;;;35.93;28.86;93214.34;4987351;28;20412;-45
2022/07/26 08:40:24;;;;;;;8.60;7.78;;;;;;;36.88;28.18;93214.50;4988342;28;20089;-37
2022/07/26 08:42:51;;;;;;;8.80;6.70;;;;;;;36.64;27.05;93218.28;4988661;28;20045;-36
2022/07/26 08:45:25;;;;;;;8.27;7.47;;;;;;;35.47;29.56;93195.84;4987416;28;20065;-37
2022/07/26 08:47:51;;;;;;;8.43;7.63;;;;;;;36.48;27.62;93216.22;4988431;28;20057;-43
2022/07/26 08:50:16;;;;;;;8.20;7.50;;;;;;;37.11;27.43;93213.59;4987899;28;20135;-43
2022/07/26 08:52:42;;;;;;;7.70;6.95;;;;;;;37.30;23.96;93214.13;4988781;28;20026;-42
2022/07/26 08:55:09;;;;;;;7.35;6.75;;;;;;;37.64;23.57;93181.38;4987490;28;20680;-39
2022/07/26 08:57:34;;;;;;;8.57;5.95;;;;;;;38.55;23.00;93198.19;4988838;28;20030;-40
2022/07/26 09:00:18;;;;;;;7.28;6.68;;;;;;;39.44;22.51;93200.31;4988587;28;20026;-39
2022/07/26 09:02:44;;;;;;;7.03;6.38;;;;;;;39.47;21.67;93198.81;4988579;28;20447;-40
2022/07/26 09:05:10;;;;;;;9.80;6.20;;;;;;;39.51;21.27;93207.41;4988148;28;20045;-41
2022/07/26 09:07:38;;;;;;;6.93;6.00;;;;;;;39.85;21.39;93200.28;4988807;28;20026;-40
2022/07/26 09:10:09;;;;;;;8.18;7.47;;;;;;;39.89;22.11;93206.72;4988704;28;20026;-40
2022/07/26 09:12:35;;;;;;;7.93;7.22;;;;;;;39.82;21.50;93201.78;4988209;28;20496;-39
2022/07/26 09:15:02;;;;;;;6.55;6.05;;;;;;;39.59;19.95;93210.19;4988252;28;20522;-38
2022/07/26 09:17:40;;;;;;;6.88;6.25;;;;;;;39.74;20.79;93208.47;4988444;28;20041;-45
2022/07/26 09:20:18;;;;;;;7.55;6.85;;;;;;;40.82;19.36;93207.59;4988302;28;20089;-40
2022/07/26 09:23:01;;;;;;;7.13;6.43;;;;;;;41.44;17.87;93200.25;4987830;28;20522;-40
2022/07/26 09:25:29;;;;;;;7.38;6.63;;;;;;;41.18;17.81;93203.09;4987825;28;20062;-40
2022/07/26 09:27:54;;;;;;;;;;;;;;;41.39;19.26;93201.13;4988524;28;20538;-38
2022/07/26 09:30:20;;;;;;;5.88;5.38;;;;;;;41.37;18.06;93206.97;4987721;28;19914;-40
2022/07/26 09:33:04;;;;;;;6.18;5.53;;;;;;;40.21;18.64;93201.72;4988057;28;20045;-41
2022/07/26 09:35:34;;;;;;;6.45;5.95;;;;;;;40.11;18.85;93196.88;4987681;28;20026;-38
2022/07/26 09:38:00;;;;;;;6.38;5.78;;;;;;;40.79;18.98;93188.81;4987473;28;20054;-38
2022/07/26 09:40:32;;;;;;;6.07;5.57;;;;;;;40.13;20.05;93193.22;4987748;28;20125;-37
2022/07/26 09:43:04;;;;;;;6.22;5.72;;;;;;;39.25;19.54;93196.34;4987873;28;20464;-37
2022/07/26 09:45:31;;;;;;;6.18;5.63;;;;;;;39.50;19.89;93190.84;4984874;28;20031;-39
2022/07/26 09:47:57;;;;;;;10.10;7.40;;;;;;;40.15;18.78;93185.22;4983442;28;20104;-38
2022/07/26 09:50:25;;;;;;;6.30;5.80;;;;;;;40.37;18.43;93193.38;4999015;28;20490;-40
2022/07/26 09:53:06;;;;;;;;;;;;;;;39.20;19.72;93195.00;5007309;28;20565;-42
2022/07/26 09:55:32;;;;;;;8.68;5.97;;;;;;;38.63;21.54;93189.41;5006075;28;19948;-39
2022/07/26 09:58:02;;;;;;;7.07;6.47;;;;;;;38.61;21.46;93186.56;4993242;28;20034;-38
2022/07/26 10:00:29;;;;;;;6.72;6.13;;;;;;;39.19;19.78;93188.50;4986981;28;20042;-38
2022/07/26 10:02:54;;;;;;;7.18;6.50;;;;;;;39.38;19.78;93183.81;4987223;28;20037;-40
2022/07/26 10:05:20;;;;;;;6.40;5.90;;;;;;;39.44;18.95;93182.97;4987555;28;20034;-39
2022/07/26 10:07:48;;;;;;;7.45;6.55;;;;;;;38.97;18.98;93191.75;4992977;28;20030;-38
2022/07/26 10:10:15;;;;;;;;;;;;;;;39.10;19.41;93187.19;4987204;28;20065;-40
2022/07/26 10:12:45;;;;;;;8.10;6.05;;;;;;;39.22;18.08;93175.44;5018775;28;19917;-43
2022/07/26 10:15:37;;;;;;;8.23;7.63;;;;;;;38.47;20.08;93181.00;4987221;28;20040;-38
2022/07/26 10:18:04;;;;;;;8.30;7.50;;;;;;;37.95;21.81;93179.53;4971324;28;20550;-39
2022/07/26 10:20:41;;;;;;;8.15;7.47;;;;;;;38.13;21.21;93187.97;4987755;28;20201;-40
2022/07/26 10:23:34;;;;;;;8.45;7.75;;;;;;;38.06;21.89;93185.88;4987328;28;20026;-39
2022/07/26 10:26:01;;;;;;;8.63;7.82;;;;;;;38.06;21.67;93177.25;4987022;28;20040;-38
2022/07/26 10:28:28;;;;;;;8.30;7.50;;;;;;;38.31;20.64;93173.31;4981595;28;20049;-39
2022/07/26 10:31:19;;;;;;;10.20;9.30;;;;;;;37.88;21.03;93173.16;4989113;28;20045;-39
2022/07/26 10:33:47;;;;;;;8.75;8.05;;;;;;;37.31;23.00;93177.41;4980101;28;20454;-39
2022/07/26 10:36:42;;;;;;;;;;;;;;;36.86;20.96;93180.66;4984436;28;20018;-39
2022/07/26 10:39:13;;;;;;;12.57;8.57;;;;;;;36.82;21.70;93172.09;4976796;28;19918;-38
2022/07/26 10:41:46;;;;;;;9.57;8.77;;;;;;;36.69;21.99;93173.63;4977375;28;20035;-39
2022/07/26 10:44:12;;;;;;;8.38;7.72;;;;;;;36.13;22.47;93171.88;4986367;28;20109;-40
2022/07/26 10:46:57;;;;;;;7.93;7.15;;;;;;;36.16;22.90;93164.66;4988847;28;20121;-39
2022/07/26 10:49:54;;;;;;;8.23;7.50;;;;;;;35.16;23.69;93153.59;4989276;28;20034;-40
2022/07/26 10:52:21;;;;;;;9.10;8.23;;;;;;;34.92;24.19;93154.34;4988933;28;20088;-40
2022/07/26 10:54:56;;;;;;;10.35;8.27;;;;;;;34.12;26.58;93155.06;4989131;28;20038;-40
2022/07/26 10:57:31;;;;;;;8.13;7.47;;;;;;;33.73;27.93;93154.22;4989165;28;20042;-40
2022/07/26 10:59:58;;;;;;;9.15;8.35;;;;;;;33.97;26.26;93154.28;4989186;28;20034;-39
2022/07/26 11:02:31;;;;;;;8.35;7.65;;;;;;;34.72;25.78;93152.22;4987561;28;20038;-39
2022/07/26 11:05:12;;;;;;;7.50;6.80;;;;;;;35.42;22.99;93154.22;4988630;28;20065;-39
2022/07/26 11:08:09;;;;;;;7.50;6.72;;;;;;;36.07;23.15;93142.44;4989221;28;20480;-39
2022/07/26 11:10:43;;;;;;;7.35;6.75;;;;;;;36.77;22.62;93141.22;4989124;28;20038;-39
2022/07/26 11:13:09;;;;;;;7.32;6.72;;;;;;;37.19;22.09;93123.53;4988426;28;20439;-41
2022/07/26 11:15:42;;;;;;;7.65;7.03;;;;;;;37.69;21.26;93125.81;4989685;28;20038;-39
2022/07/26 11:18:15;;;;;;;6.43;5.93;;;;;;;37.12;19.47;93125.75;4983484;28;20041;-40
2022/07/26 11:20:42;;;;;;;6.70;6.00;;;;;;;36.84;19.38;93120.25;4983600;28;20423;-39
2022/07/26 11:23:32;;;;;;;5.72;5.22;;;;;;;36.87;19.26;93113.06;4992476;28;20739;-39
2022/07/26 11:26:08;;;;;;;6.22;5.78;;;;;;;36.63;20.61;93112.56;4992274;28;20030;-38
2022/07/26 11:28:45;;;;;;;6.75;6.22;;;;;;;36.48;20.30;93097.59;4992181;28;20072;-39
2022/07/26 11:31:11;;;;;;;7.55;7.05;;;;;;;36.08;19.64;93110.13;4991289;28;20038;-39
2022/07/26 11:33:38;;;;;;;6.32;5.72;;;;;;;35.76;19.38;93107.41;4992393;28;20510;-40
2022/07/26 11:36:05;;;;;;;6.05;5.60;;;;;;;35.84;21.62;93106.66;4991757;28;20515;-41
2022/07/26 11:38:50;;;;;;;7.85;5.85;;;;;;;36.12;21.80;93106.50;4991961;28;20085;-41
2022/07/26 11:41:20;;;;;;;6.10;5.53;;;;;;;35.91;19.89;93100.13;4991570;28;20120;-37